sensor_id;sensor_type;location;lat;lon;timestamp;pressure;altitude;pressure_sealevel;temperature;humidity
61908;BME280;47864;52.526;19.672;2023-03-25T00:12:28;99691.75;;;9.36;100.00
61908;BME280;47864;52.526;19.672;2023-03-25T00:14:29;99691.38;;;9.39;100.00
61908;BME280;47864;52.526;19.672;2023-03-25T00:16:31;99695.06;;;9.46;100.00
61908;BME280;47864;52.526;19.672;2023-03-25T00:18:32;99708.75;;;9.34;100.00
61908;BME280;47864;52.526;19.672;2023-03-25T00:20:34;99706.63;;;9.29;100.00
61908;BME280;47864;52.526;19.672;2023-03-25T00:22:37;99703.97;;;9.29;100.00
61908;BME280;47864;52.526;19.672;2023-03-25T00:24:39;99713.75;;;9.29;100.00
61908;BME280;47864;52.526;19.672;2023-03-25T00:26:40;99708.09;;;9.40;100.00
61908;BME280;47864;52.526;19.672;2023-03-25T00:28:41;99705.28;;;9.25;100.00
61908;BME280;47864;52.526;19.672;2023-03-25T00:30:44;99703.47;;;9.26;100.00
61908;BME280;47864;52.526;19.672;2023-03-25T00:32:46;99692.72;;;9.11;100.00
61908;BME280;47864;52.526;19.672;2023-03-25T00:34:47;99702.31;;;9.12;100.00
61908;BME280;47864;52.526;19.672;2023-03-25T00:36:49;99711.06;;;9.12;100.00
61908;BME280;47864;52.526;19.672;2023-03-25T00:38:50;99706.25;;;9.16;100.00
61908;BME280;47864;52.526;19.672;2023-03-25T00:40:52;99699.50;;;9.13;100.00
61908;BME280;47864;52.526;19.672;2023-03-25T00:42:54;99700.47;;;9.04;100.00
61908;BME280;47864;52.526;19.672;2023-03-25T00:44:56;99691.00;;;8.86;100.00
61908;BME280;47864;52.526;19.672;2023-03-25T00:46:57;99707.22;;;8.99;100.00
61908;BME280;47864;52.526;19.672;2023-03-25T00:48:59;99703.94;;;9.05;100.00
61908;BME280;47864;52.526;19.672;2023-03-25T00:51:01;99702.91;;;8.98;100.00
61908;BME280;47864;52.526;19.672;2023-03-25T00:53:03;99706.25;;;9.00;100.00
61908;BME280;47864;52.526;19.672;2023-03-25T00:55:05;99703.94;;;8.97;100.00
61908;BME280;47864;52.526;19.672;2023-03-25T00:57:06;99714.66;;;8.87;100.00
61908;BME280;47864;52.526;19.672;2023-03-25T00:59:09;99706.03;;;8.77;100.00
61908;BME280;47864;52.526;19.672;2023-03-25T01:01:15;99692.28;;;8.73;100.00
61908;BME280;47864;52.526;19.672;2023-03-25T01:03:17;99707.03;;;8.84;100.00
61908;BME280;47864;52.526;19.672;2023-03-25T01:05:18;99686.56;;;8.86;100.00
61908;BME280;47864;52.526;19.672;2023-03-25T01:07:20;99670.81;;;8.76;100.00
61908;BME280;47864;52.526;19.672;2023-03-25T01:09:22;99691.34;;;8.91;100.00
61908;BME280;47864;52.526;19.672;2023-03-25T01:11:26;99687.41;;;8.95;100.00
61908;BME280;47864;52.526;19.672;2023-03-25T01:13:29;99691.84;;;8.94;100.00
61908;BME280;47864;52.526;19.672;2023-03-25T01:15:30;99689.03;;;8.88;100.00
61908;BME280;47864;52.526;19.672;2023-03-25T01:17:32;99662.91;;;8.85;100.00
61908;BME280;47864;52.526;19.672;2023-03-25T01:19:34;99679.94;;;8.98;100.00
61908;BME280;47864;52.526;19.672;2023-03-25T01:21:35;99687.56;;;9.01;100.00
61908;BME280;47864;52.526;19.672;2023-03-25T01:23:37;99680.63;;;9.08;100.00
61908;BME280;47864;52.526;19.672;2023-03-25T01:25:39;99679.31;;;9.21;100.00
61908;BME280;47864;52.526;19.672;2023-03-25T01:27:40;99676.19;;;9.25;100.00
61908;BME280;47864;52.526;19.672;2023-03-25T01:29:42;99673.53;;;9.25;100.00
61908;BME280;47864;52.526;19.672;2023-03-25T01:31:43;99682.81;;;9.21;100.00
61908;BME280;47864;52.526;19.672;2023-03-25T01:33:45;99681.97;;;9.21;100.00
61908;BME280;47864;52.526;19.672;2023-03-25T01:35:46;99691.72;;;9.20;100.00
61908;BME280;47864;52.526;19.672;2023-03-25T01:37:49;99691.22;;;9.16;100.00
61908;BME280;47864;52.526;19.672;2023-03-25T01:39:50;99685.94;;;9.16;100.00
61908;BME280;47864;52.526;19.672;2023-03-25T01:41:51;99647.56;;;8.88;100.00
61908;BME280;47864;52.526;19.672;2023-03-25T01:44:01;99686.28;;;9.13;100.00
61908;BME280;47864;52.526;19.672;2023-03-25T01:46:02;99677.16;;;9.00;100.00
61908;BME280;47864;52.526;19.672;2023-03-25T01:48:12;99687.25;;;9.04;100.00
61908;BME280;47864;52.526;19.672;2023-03-25T01:50:15;99693.16;;;8.98;100.00
61908;BME280;47864;52.526;19.672;2023-03-25T01:52:20;99686.56;;;8.94;100.00
61908;BME280;47864;52.526;19.672;2023-03-25T01:54:23;99680.59;;;8.84;100.00
61908;BME280;47864;52.526;19.672;2023-03-25T01:56:28;99677.47;;;8.81;100.00
61908;BME280;47864;52.526;19.672;2023-03-25T01:58:32;99694.16;;;8.81;100.00
61908;BME280;47864;52.526;19.672;2023-03-25T02:00:35;99689.66;;;8.73;100.00
61908;BME280;47864;52.526;19.672;2023-03-25T02:02:39;99691.66;;;8.71;100.00
61908;BME280;47864;52.526;19.672;2023-03-25T02:04:59;99692.63;;;8.70;100.00
61908;BME280;47864;52.526;19.672;2023-03-25T02:07:02;99672.41;;;8.53;100.00
61908;BME280;47864;52.526;19.672;2023-03-25T02:09:04;99688.63;;;8.58;100.00
61908;BME280;47864;52.526;19.672;2023-03-25T02:11:07;99685.50;;;8.63;100.00
61908;BME280;47864;52.526;19.672;2023-03-25T02:13:09;99680.38;;;8.61;100.00
61908;BME280;47864;52.526;19.672;2023-03-25T02:15:14;99674.94;;;8.63;100.00
61908;BME280;47864;52.526;19.672;2023-03-25T02:27:03;99675.06;;;8.53;100.00
61908;BME280;47864;52.526;19.672;2023-03-25T02:29:14;99672.53;;;8.44;100.00
61908;BME280;47864;52.526;19.672;2023-03-25T02:31:35;99675.31;;;8.34;100.00
61908;BME280;47864;52.526;19.672;2023-03-25T02:41:02;99678.22;;;7.89;100.00
61908;BME280;47864;52.526;19.672;2023-03-25T02:43:11;99668.47;;;7.89;100.00
61908;BME280;47864;52.526;19.672;2023-03-25T02:45:23;99674.09;;;7.94;100.00
61908;BME280;47864;52.526;19.672;2023-03-25T02:47:34;99682.22;;;8.01;100.00
61908;BME280;47864;52.526;19.672;2023-03-25T02:49:42;99678.69;;;7.92;100.00
61908;BME280;47864;52.526;19.672;2023-03-25T02:51:48;99670.28;;;7.89;100.00
61908;BME280;47864;52.526;19.672;2023-03-25T02:53:54;99655.88;;;7.83;100.00
61908;BME280;47864;52.526;19.672;2023-03-25T02:55:59;99678.41;;;7.95;100.00
61908;BME280;47864;52.526;19.672;2023-03-25T02:58:05;99678.81;;;7.83;100.00
61908;BME280;47864;52.526;19.672;2023-03-25T03:10:18;99674.88;;;7.87;100.00
61908;BME280;47864;52.526;19.672;2023-03-25T03:18:50;99673.41;;;7.92;100.00
61908;BME280;47864;52.526;19.672;2023-03-25T03:20:58;99671.56;;;7.85;100.00
61908;BME280;47864;52.526;19.672;2023-03-25T03:23:14;99676.28;;;7.73;100.00
61908;BME280;47864;52.526;19.672;2023-03-25T03:25:30;99679.97;;;7.80;100.00
61908;BME280;47864;52.526;19.672;2023-03-25T03:27:37;99680.47;;;7.84;100.00
61908;BME280;47864;52.526;19.672;2023-03-25T03:29:47;99673.41;;;7.92;100.00
61908;BME280;47864;52.526;19.672;2023-03-25T03:32:07;99670.75;;;7.84;100.00
61908;BME280;47864;52.526;19.672;2023-03-25T03:34:20;99672.53;;;7.84;100.00
61908;BME280;47864;52.526;19.672;2023-03-25T03:36:27;99664.44;;;7.77;100.00
61908;BME280;47864;52.526;19.672;2023-03-25T03:38:35;99671.56;;;7.85;100.00
61908;BME280;47864;52.526;19.672;2023-03-25T03:40:40;99676.16;;;7.83;100.00
61908;BME280;47864;52.526;19.672;2023-03-25T03:43:14;99677.69;;;7.85;100.00
61908;BME280;47864;52.526;19.672;2023-03-25T03:45:38;99666.63;;;7.82;100.00
61908;BME280;47864;52.526;19.672;2023-03-25T03:47:43;99662.47;;;7.79;100.00
61908;BME280;47864;52.526;19.672;2023-03-25T03:49:52;99641.25;;;7.63;100.00
61908;BME280;47864;52.526;19.672;2023-03-25T03:52:01;99657.38;;;7.60;100.00
61908;BME280;47864;52.526;19.672;2023-03-25T03:54:45;99662.47;;;7.53;100.00
61908;BME280;47864;52.526;19.672;2023-03-25T03:56:57;99647.41;;;7.46;100.00
61908;BME280;47864;52.526;19.672;2023-03-25T03:59:03;99664.88;;;7.47;100.00
61908;BME280;47864;52.526;19.672;2023-03-25T04:01:19;99672.25;;;7.61;100.00
61908;BME280;47864;52.526;19.672;2023-03-25T04:03:29;99686.28;;;7.61;100.00
61908;BME280;47864;52.526;19.672;2023-03-25T04:05:33;99682.34;;;7.66;100.00
61908;BME280;47864;52.526;19.672;2023-03-25T04:07:47;99683.50;;;7.45;100.00
61908;BME280;47864;52.526;19.672;2023-03-25T04:10:15;99677.13;;;7.30;100.00
61908;BME280;47864;52.526;19.672;2023-03-25T04:12:33;99678.88;;;7.21;100.00
61908;BME280;47864;52.526;19.672;2023-03-25T04:14:37;99666.28;;;7.15;100.00
61908;BME280;47864;52.526;19.672;2023-03-25T04:16:40;99666.28;;;7.15;100.00
61908;BME280;47864;52.526;19.672;2023-03-25T04:18:42;99669.97;;;7.05;100.00
61908;BME280;47864;52.526;19.672;2023-03-25T04:20:43;99669.59;;;7.17;100.00
61908;BME280;47864;52.526;19.672;2023-03-25T04:22:45;99653.00;;;7.25;100.00
61908;BME280;47864;52.526;19.672;2023-03-25T04:24:47;99667.25;;;7.32;100.00
61908;BME280;47864;52.526;19.672;2023-03-25T04:26:48;99667.53;;;7.47;100.00
61908;BME280;47864;52.526;19.672;2023-03-25T04:28:50;99666.06;;;7.52;100.00
61908;BME280;47864;52.526;19.672;2023-03-25T04:30:52;99683.78;;;7.60;100.00
61908;BME280;47864;52.526;19.672;2023-03-25T04:32:54;99655.09;;;7.39;100.00
61908;BME280;47864;52.526;19.672;2023-03-25T04:34:55;99663.41;;;7.26;100.00
61908;BME280;47864;52.526;19.672;2023-03-25T04:36:57;99681.63;;;7.38;100.00
61908;BME280;47864;52.526;19.672;2023-03-25T04:38:58;99685.13;;;7.20;100.00
61908;BME280;47864;52.526;19.672;2023-03-25T04:41:00;99661.38;;;7.20;100.00
61908;BME280;47864;52.526;19.672;2023-03-25T04:43:02;99674.03;;;7.35;100.00
61908;BME280;47864;52.526;19.672;2023-03-25T04:45:04;99689.16;;;7.50;100.00
61908;BME280;47864;52.526;19.672;2023-03-25T04:47:08;99685.31;;;7.45;100.00
61908;BME280;47864;52.526;19.672;2023-03-25T04:49:20;99667.34;;;7.22;100.00
61908;BME280;47864;52.526;19.672;2023-03-25T04:51:22;99675.53;;;7.37;100.00
61908;BME280;47864;52.526;19.672;2023-03-25T04:53:27;99678.72;;;7.41;100.00
61908;BME280;47864;52.526;19.672;2023-03-25T04:55:29;99681.06;;;7.52;100.00
61908;BME280;47864;52.526;19.672;2023-03-25T04:57:30;99679.25;;;7.70;100.00
61908;BME280;47864;52.526;19.672;2023-03-25T04:59:32;99681.25;;;7.76;100.00
61908;BME280;47864;52.526;19.672;2023-03-25T05:01:35;99682.84;;;7.69;100.00
61908;BME280;47864;52.526;19.672;2023-03-25T05:03:37;99663.19;;;7.63;100.00
61908;BME280;47864;52.526;19.672;2023-03-25T05:05:39;99657.50;;;7.76;100.00
61908;BME280;47864;52.526;19.672;2023-03-25T05:07:40;99692.44;;;7.96;100.00
61908;BME280;47864;52.526;19.672;2023-03-25T05:09:42;99674.78;;;7.96;100.00
61908;BME280;47864;52.526;19.672;2023-03-25T05:11:45;99694.34;;;8.12;100.00
61908;BME280;47864;52.526;19.672;2023-03-25T05:13:46;99693.22;;;8.14;100.00
61908;BME280;47864;52.526;19.672;2023-03-25T05:15:48;99689.50;;;8.07;100.00
61908;BME280;47864;52.526;19.672;2023-03-25T05:17:50;99711.50;;;8.16;100.00
61908;BME280;47864;52.526;19.672;2023-03-25T05:19:51;99715.56;;;8.28;100.00
61908;BME280;47864;52.526;19.672;2023-03-25T05:21:53;99719.56;;;8.32;100.00
61908;BME280;47864;52.526;19.672;2023-03-25T05:23:55;99694.34;;;8.12;100.00
61908;BME280;47864;52.526;19.672;2023-03-25T05:25:56;99712.22;;;8.26;100.00
61908;BME280;47864;52.526;19.672;2023-03-25T05:27:59;99704.75;;;8.39;100.00
61908;BME280;47864;52.526;19.672;2023-03-25T05:30:01;99703.94;;;8.47;100.00
61908;BME280;47864;52.526;19.672;2023-03-25T05:32:02;99706.84;;;8.69;100.00
61908;BME280;47864;52.526;19.672;2023-03-25T05:34:04;99721.59;;;8.88;100.00
61908;BME280;47864;52.526;19.672;2023-03-25T05:36:06;99724.59;;;9.01;100.00
61908;BME280;47864;52.526;19.672;2023-03-25T05:38:08;99725.94;;;9.05;100.00
61908;BME280;47864;52.526;19.672;2023-03-25T05:40:10;99726.41;;;8.93;100.00
61908;BME280;47864;52.526;19.672;2023-03-25T05:42:15;99724.44;;;8.95;100.00
61908;BME280;47864;52.526;19.672;2023-03-25T05:44:17;99710.38;;;8.94;100.00
61908;BME280;47864;52.526;19.672;2023-03-25T05:46:18;99729.44;;;9.14;100.00
61908;BME280;47864;52.526;19.672;2023-03-25T05:48:20;99717.69;;;9.16;100.00
61908;BME280;47864;52.526;19.672;2023-03-25T05:50:21;99730.75;;;9.26;100.00
61908;BME280;47864;52.526;19.672;2023-03-25T05:52:23;99735.75;;;9.45;100.00
61908;BME280;47864;52.526;19.672;2023-03-25T05:54:25;99720.69;;;9.38;100.00
61908;BME280;47864;52.526;19.672;2023-03-25T05:56:26;99726.31;;;9.59;100.00
61908;BME280;47864;52.526;19.672;2023-03-25T05:58:28;99734.53;;;10.13;100.00
61908;BME280;47864;52.526;19.672;2023-03-25T06:00:29;99745.38;;;10.50;100.00
61908;BME280;47864;52.526;19.672;2023-03-25T06:02:31;99722.81;;;10.93;100.00
61908;BME280;47864;52.526;19.672;2023-03-25T06:04:34;99733.44;;;11.62;100.00
61908;BME280;47864;52.526;19.672;2023-03-25T06:06:36;99713.56;;;11.80;100.00
61908;BME280;47864;52.526;19.672;2023-03-25T06:08:37;99726.81;;;12.33;100.00
61908;BME280;47864;52.526;19.672;2023-03-25T06:10:39;99732.84;;;12.12;100.00
61908;BME280;47864;52.526;19.672;2023-03-25T06:12:40;99741.31;;;12.60;100.00
61908;BME280;47864;52.526;19.672;2023-03-25T06:14:42;99724.69;;;12.13;100.00
61908;BME280;47864;52.526;19.672;2023-03-25T06:16:43;99737.22;;;11.67;100.00
61908;BME280;47864;52.526;19.672;2023-03-25T06:18:47;99703.47;;;11.07;100.00
61908;BME280;47864;52.526;19.672;2023-03-25T06:20:49;99746.50;;;11.26;100.00
61908;BME280;47864;52.526;19.672;2023-03-25T06:22:50;99746.44;;;11.34;100.00
61908;BME280;47864;52.526;19.672;2023-03-25T06:24:52;99741.72;;;11.21;100.00
61908;BME280;47864;52.526;19.672;2023-03-25T06:26:53;99744.91;;;11.17;100.00
61908;BME280;47864;52.526;19.672;2023-03-25T06:28:55;99736.13;;;10.85;100.00
61908;BME280;47864;52.526;19.672;2023-03-25T06:30:56;99742.13;;;11.56;100.00
61908;BME280;47864;52.526;19.672;2023-03-25T06:32:58;99731.53;;;11.70;100.00
61908;BME280;47864;52.526;19.672;2023-03-25T06:34:59;99728.06;;;11.70;100.00
61908;BME280;47864;52.526;19.672;2023-03-25T06:37:01;99725.81;;;11.44;100.00
61908;BME280;47864;52.526;19.672;2023-03-25T06:39:03;99731.50;;;11.10;100.00
61908;BME280;47864;52.526;19.672;2023-03-25T06:41:04;99726.50;;;11.38;100.00
61908;BME280;47864;52.526;19.672;2023-03-25T06:43:06;99712.22;;;11.39;100.00
61908;BME280;47864;52.526;19.672;2023-03-25T06:45:08;99733.06;;;11.50;100.00
61908;BME280;47864;52.526;19.672;2023-03-25T06:47:10;99734.88;;;11.50;100.00
61908;BME280;47864;52.526;19.672;2023-03-25T06:49:11;99731.50;;;11.56;100.00
61908;BME280;47864;52.526;19.672;2023-03-25T06:51:13;99733.06;;;11.27;100.00
61908;BME280;47864;52.526;19.672;2023-03-25T06:53:14;99727.31;;;11.16;100.00
61908;BME280;47864;52.526;19.672;2023-03-25T06:55:16;99730.25;;;11.21;100.00
61908;BME280;47864;52.526;19.672;2023-03-25T06:57:18;99729.81;;;11.17;100.00
61908;BME280;47864;52.526;19.672;2023-03-25T06:59:19;99730.66;;;10.87;100.00
61908;BME280;47864;52.526;19.672;2023-03-25T07:01:21;99726.63;;;10.91;100.00
61908;BME280;47864;52.526;19.672;2023-03-25T07:03:22;99732.78;;;10.91;100.00
61908;BME280;47864;52.526;19.672;2023-03-25T07:05:24;99738.13;;;10.83;100.00
61908;BME280;47864;52.526;19.672;2023-03-25T07:07:25;99707.22;;;10.90;100.00
61908;BME280;47864;52.526;19.672;2023-03-25T07:09:27;99727.16;;;11.17;100.00
61908;BME280;47864;52.526;19.672;2023-03-25T07:11:29;99731.41;;;11.26;100.00
61908;BME280;47864;52.526;19.672;2023-03-25T07:13:31;99739.47;;;11.10;100.00
61908;BME280;47864;52.526;19.672;2023-03-25T07:15:33;99729.72;;;11.02;100.00
61908;BME280;47864;52.526;19.672;2023-03-25T07:17:35;99734.84;;;11.04;100.00
61908;BME280;47864;52.526;19.672;2023-03-25T07:19:36;99714.66;;;11.26;100.00
61908;BME280;47864;52.526;19.672;2023-03-25T07:21:38;99704.13;;;11.10;100.00
61908;BME280;47864;52.526;19.672;2023-03-25T07:23:39;99729.31;;;11.14;100.00
61908;BME280;47864;52.526;19.672;2023-03-25T07:25:41;99726.59;;;11.22;100.00
61908;BME280;47864;52.526;19.672;2023-03-25T07:27:42;99727.88;;;11.34;100.00
61908;BME280;47864;52.526;19.672;2023-03-25T07:29:44;99728.44;;;11.21;100.00
61908;BME280;47864;52.526;19.672;2023-03-25T07:31:45;99718.78;;;11.51;100.00
61908;BME280;47864;52.526;19.672;2023-03-25T07:33:47;99721.34;;;11.82;100.00
61908;BME280;47864;52.526;19.672;2023-03-25T07:35:48;99718.16;;;11.64;100.00
61908;BME280;47864;52.526;19.672;2023-03-25T07:37:51;99703.78;;;11.58;100.00
61908;BME280;47864;52.526;19.672;2023-03-25T07:39:52;99717.81;;;11.67;100.00
61908;BME280;47864;52.526;19.672;2023-03-25T07:41:53;99726.44;;;11.46;100.00
61908;BME280;47864;52.526;19.672;2023-03-25T07:43:55;99714.41;;;11.35;100.00
61908;BME280;47864;52.526;19.672;2023-03-25T07:45:57;99727.69;;;11.58;100.00
61908;BME280;47864;52.526;19.672;2023-03-25T07:48:00;99716.13;;;11.89;100.00
61908;BME280;47864;52.526;19.672;2023-03-25T07:50:02;99703.75;;;11.81;100.00
61908;BME280;47864;52.526;19.672;2023-03-25T07:52:04;99722.94;;;12.06;100.00
61908;BME280;47864;52.526;19.672;2023-03-25T07:54:06;99719.63;;;12.04;100.00
61908;BME280;47864;52.526;19.672;2023-03-25T07:56:08;99725.34;;;12.01;100.00
61908;BME280;47864;52.526;19.672;2023-03-25T07:58:10;99725.56;;;11.76;100.00
61908;BME280;47864;52.526;19.672;2023-03-25T08:00:12;99732.72;;;11.76;100.00
61908;BME280;47864;52.526;19.672;2023-03-25T08:02:14;99737.50;;;11.72;100.00
61908;BME280;47864;52.526;19.672;2023-03-25T08:04:15;99740.81;;;11.97;100.00
61908;BME280;47864;52.526;19.672;2023-03-25T08:06:17;99746.97;;;12.12;100.00
61908;BME280;47864;52.526;19.672;2023-03-25T08:08:18;99731.34;;;11.57;100.00
61908;BME280;47864;52.526;19.672;2023-03-25T08:10:20;99739.31;;;11.34;100.00
61908;BME280;47864;52.526;19.672;2023-03-25T08:12:21;99735.25;;;11.61;100.00
61908;BME280;47864;52.526;19.672;2023-03-25T08:14:23;99730.06;;;11.76;100.00
61908;BME280;47864;52.526;19.672;2023-03-25T08:16:25;99705.19;;;11.69;100.00
61908;BME280;47864;52.526;19.672;2023-03-25T08:18:27;99723.94;;;11.90;100.00
61908;BME280;47864;52.526;19.672;2023-03-25T08:20:29;99706.81;;;11.93;100.00
61908;BME280;47864;52.526;19.672;2023-03-25T08:22:31;99717.97;;;11.88;100.00
61908;BME280;47864;52.526;19.672;2023-03-25T08:24:32;99720.19;;;11.85;100.00
61908;BME280;47864;52.526;19.672;2023-03-25T08:26:34;99727.28;;;11.61;100.00
61908;BME280;47864;52.526;19.672;2023-03-25T08:28:35;99707.78;;;11.54;100.00
61908;BME280;47864;52.526;19.672;2023-03-25T08:30:37;99714.59;;;11.71;100.00
61908;BME280;47864;52.526;19.672;2023-03-25T08:32:39;99712.50;;;12.19;100.00
61908;BME280;47864;52.526;19.672;2023-03-25T08:34:40;99731.78;;;12.50;100.00
61908;BME280;47864;52.526;19.672;2023-03-25T08:36:42;99725.81;;;12.48;100.00
61908;BME280;47864;52.526;19.672;2023-03-25T08:38:44;99722.41;;;12.25;100.00
61908;BME280;47864;52.526;19.672;2023-03-25T08:40:47;99719.94;;;12.09;100.00
61908;BME280;47864;52.526;19.672;2023-03-25T08:42:48;99704.25;;;12.14;100.00
61908;BME280;47864;52.526;19.672;2023-03-25T08:44:50;99708.38;;;12.46;100.00
61908;BME280;47864;52.526;19.672;2023-03-25T08:46:51;99719.09;;;12.67;100.00
61908;BME280;47864;52.526;19.672;2023-03-25T08:48:53;99714.63;;;12.24;100.00
61908;BME280;47864;52.526;19.672;2023-03-25T08:50:54;99702.41;;;12.29;100.00
61908;BME280;47864;52.526;19.672;2023-03-25T08:52:57;99711.66;;;12.63;100.00
61908;BME280;47864;52.526;19.672;2023-03-25T08:54:59;99713.75;;;12.82;100.00
61908;BME280;47864;52.526;19.672;2023-03-25T08:57:00;99707.66;;;12.88;100.00
61908;BME280;47864;52.526;19.672;2023-03-25T08:59:02;99714.84;;;12.73;100.00
61908;BME280;47864;52.526;19.672;2023-03-25T09:01:04;99709.91;;;12.84;100.00
61908;BME280;47864;52.526;19.672;2023-03-25T09:03:05;99689.78;;;13.18;100.00
61908;BME280;47864;52.526;19.672;2023-03-25T09:05:09;99700.50;;;13.46;100.00
61908;BME280;47864;52.526;19.672;2023-03-25T09:07:10;99696.50;;;13.56;100.00
61908;BME280;47864;52.526;19.672;2023-03-25T09:09:14;99688.31;;;13.58;100.00
61908;BME280;47864;52.526;19.672;2023-03-25T09:11:15;99691.09;;;13.71;100.00
61908;BME280;47864;52.526;19.672;2023-03-25T09:13:30;99694.66;;;13.57;100.00
61908;BME280;47864;52.526;19.672;2023-03-25T09:15:32;99667.66;;;13.39;100.00
61908;BME280;47864;52.526;19.672;2023-03-25T09:17:33;99689.44;;;13.06;100.00
61908;BME280;47864;52.526;19.672;2023-03-25T09:19:35;99672.78;;;13.19;100.00
61908;BME280;47864;52.526;19.672;2023-03-25T09:21:37;99689.44;;;13.06;100.00
61908;BME280;47864;52.526;19.672;2023-03-25T09:23:38;99675.25;;;12.99;100.00
61908;BME280;47864;52.526;19.672;2023-03-25T09:25:40;99690.69;;;13.10;100.00
61908;BME280;47864;52.526;19.672;2023-03-25T09:27:42;99680.16;;;13.02;100.00
61908;BME280;47864;52.526;19.672;2023-03-25T09:29:44;99685.69;;;13.01;100.00
61908;BME280;47864;52.526;19.672;2023-03-25T09:31:45;99698.38;;;12.99;100.00
61908;BME280;47864;52.526;19.672;2023-03-25T09:33:46;99703.31;;;13.02;100.00
61908;BME280;47864;52.526;19.672;2023-03-25T09:35:48;99711.72;;;13.20;100.00
61908;BME280;47864;52.526;19.672;2023-03-25T09:37:51;99692.91;;;13.21;100.00
61908;BME280;47864;52.526;19.672;2023-03-25T09:39:53;99692.53;;;12.88;100.00
61908;BME280;47864;52.526;19.672;2023-03-25T09:44:12;99709.44;;;13.02;100.00
61908;BME280;47864;52.526;19.672;2023-03-25T09:46:18;99702.69;;;12.85;100.00
61908;BME280;47864;52.526;19.672;2023-03-25T09:48:41;99705.56;;;12.83;100.00
61908;BME280;47864;52.526;19.672;2023-03-25T09:50:44;99701.09;;;12.69;100.00
61908;BME280;47864;52.526;19.672;2023-03-25T09:53:38;99704.56;;;12.84;100.00
61908;BME280;47864;52.526;19.672;2023-03-25T09:55:20;99708.22;;;13.19;100.00
61908;BME280;47864;52.526;19.672;2023-03-25T09:57:27;99718.16;;;13.11;100.00
61908;BME280;47864;52.526;19.672;2023-03-25T09:59:44;99707.88;;;13.22;100.00
61908;BME280;47864;52.526;19.672;2023-03-25T10:02:30;99703.91;;;13.18;100.00
61908;BME280;47864;52.526;19.672;2023-03-25T10:07:24;99712.22;;;12.94;100.00
61908;BME280;47864;52.526;19.672;2023-03-25T10:09:58;99715.44;;;12.68;100.00
61908;BME280;47864;52.526;19.672;2023-03-25T10:12:11;99712.22;;;12.58;100.00
61908;BME280;47864;52.526;19.672;2023-03-25T10:14:42;99712.47;;;12.63;100.00
61908;BME280;47864;52.526;19.672;2023-03-25T10:17:11;99714.13;;;12.64;100.00
61908;BME280;47864;52.526;19.672;2023-03-25T10:25:56;99720.94;;;13.03;100.00
61908;BME280;47864;52.526;19.672;2023-03-25T10:27:59;99711.09;;;13.03;100.00
61908;BME280;47864;52.526;19.672;2023-03-25T10:30:20;99660.16;;;13.06;100.00
61908;BME280;47864;52.526;19.672;2023-03-25T10:32:33;99684.66;;;13.02;100.00
61908;BME280;47864;52.526;19.672;2023-03-25T10:34:42;99698.09;;;13.29;100.00
61908;BME280;47864;52.526;19.672;2023-03-25T10:36:54;99677.34;;;13.46;100.00
61908;BME280;47864;52.526;19.672;2023-03-25T10:38:58;99672.38;;;13.92;100.00
61908;BME280;47864;52.526;19.672;2023-03-25T10:41:25;99682.84;;;14.63;100.00
61908;BME280;47864;52.526;19.672;2023-03-25T10:43:30;99678.72;;;14.26;100.00
61908;BME280;47864;52.526;19.672;2023-03-25T10:45:32;99676.84;;;14.54;100.00
61908;BME280;47864;52.526;19.672;2023-03-25T10:47:36;99687.72;;;15.20;100.00
61908;BME280;47864;52.526;19.672;2023-03-25T10:49:41;99663.53;;;15.68;100.00
61908;BME280;47864;52.526;19.672;2023-03-25T10:51:43;99662.47;;;15.49;100.00
61908;BME280;47864;52.526;19.672;2023-03-25T10:53:49;99646.88;;;15.72;100.00
61908;BME280;47864;52.526;19.672;2023-03-25T10:55:57;99661.63;;;15.48;98.68
61908;BME280;47864;52.526;19.672;2023-03-25T10:57:59;99635.94;;;15.21;98.31
61908;BME280;47864;52.526;19.672;2023-03-25T11:00:22;99652.66;;;14.62;100.00
61908;BME280;47864;52.526;19.672;2023-03-25T11:02:27;99651.56;;;15.24;100.00
61908;BME280;47864;52.526;19.672;2023-03-25T11:04:36;99644.59;;;15.49;97.92
61908;BME280;47864;52.526;19.672;2023-03-25T11:06:40;99644.44;;;15.64;94.73
61908;BME280;47864;52.526;19.672;2023-03-25T11:10:58;99641.50;;;15.13;100.00
61908;BME280;47864;52.526;19.672;2023-03-25T11:13:00;99633.06;;;15.75;93.31
61908;BME280;47864;52.526;19.672;2023-03-25T11:15:04;99622.81;;;15.39;91.74
61908;BME280;47864;52.526;19.672;2023-03-25T11:17:15;99628.78;;;15.68;92.41
61908;BME280;47864;52.526;19.672;2023-03-25T11:19:30;99628.16;;;15.59;92.90
61908;BME280;47864;52.526;19.672;2023-03-25T11:21:34;99611.50;;;15.44;96.96
61908;BME280;47864;52.526;19.672;2023-03-25T11:23:41;99612.84;;;16.12;91.15
61908;BME280;47864;52.526;19.672;2023-03-25T11:25:43;99605.13;;;16.35;87.60
61908;BME280;47864;52.526;19.672;2023-03-25T11:27:48;99602.44;;;15.78;89.17
61908;BME280;47864;52.526;19.672;2023-03-25T11:30:05;99632.28;;;15.62;91.70
61908;BME280;47864;52.526;19.672;2023-03-25T11:32:12;99633.25;;;14.95;93.13
61908;BME280;47864;52.526;19.672;2023-03-25T11:34:21;99614.66;;;14.60;95.20
61908;BME280;47864;52.526;19.672;2023-03-25T11:36:27;99626.47;;;14.38;96.93
61908;BME280;47864;52.526;19.672;2023-03-25T11:38:29;99630.34;;;14.35;100.00
61908;BME280;47864;52.526;19.672;2023-03-25T11:40:30;99620.78;;;13.72;100.00
61908;BME280;47864;52.526;19.672;2023-03-25T11:42:40;99628.00;;;13.50;100.00
61908;BME280;47864;52.526;19.672;2023-03-25T11:44:53;99618.94;;;12.81;100.00
61908;BME280;47864;52.526;19.672;2023-03-25T11:47:01;99631.75;;;12.56;100.00